sensor_id;sensor_type;location;lat;lon;timestamp;temperature;humidity
2190;DHT22;1101;51.056;7.262;2022-11-15T00:00:50;8.30;99.90
2190;DHT22;1101;51.056;7.262;2022-11-15T00:03:21;8.40;99.90
2190;DHT22;1101;51.056;7.262;2022-11-15T00:05:49;8.40;99.90
2190;DHT22;1101;51.056;7.262;2022-11-15T00:08:17;8.40;99.90
2190;DHT22;1101;51.056;7.262;2022-11-15T00:10:54;8.40;99.90
2190;DHT22;1101;51.056;7.262;2022-11-15T00:13:22;8.50;99.90
2190;DHT22;1101;51.056;7.262;2022-11-15T00:15:50;8.50;99.90
2190;DHT22;1101;51.056;7.262;2022-11-15T00:18:19;8.50;99.90
2190;DHT22;1101;51.056;7.262;2022-11-15T00:20:47;8.50;99.90
2190;DHT22;1101;51.056;7.262;2022-11-15T00:23:14;8.60;99.90
2190;DHT22;1101;51.056;7.262;2022-11-15T00:25:42;8.60;99.90
2190;DHT22;1101;51.056;7.262;2022-11-15T00:28:10;8.70;99.90
2190;DHT22;1101;51.056;7.262;2022-11-15T00:30:38;8.70;99.90
2190;DHT22;1101;51.056;7.262;2022-11-15T00:33:06;8.70;99.90
2190;DHT22;1101;51.056;7.262;2022-11-15T00:35:35;8.70;99.90
2190;DHT22;1101;51.056;7.262;2022-11-15T00:38:03;8.70;99.90
2190;DHT22;1101;51.056;7.262;2022-11-15T00:40:31;8.80;99.90
2190;DHT22;1101;51.056;7.262;2022-11-15T00:42:59;8.80;99.90
2190;DHT22;1101;51.056;7.262;2022-11-15T00:45:26;8.80;99.90
2190;DHT22;1101;51.056;7.262;2022-11-15T00:47:54;8.80;99.90
2190;DHT22;1101;51.056;7.262;2022-11-15T00:50:22;8.90;99.90
2190;DHT22;1101;51.056;7.262;2022-11-15T00:52:51;8.90;99.90
2190;DHT22;1101;51.056;7.262;2022-11-15T00:55:19;8.90;99.90
2190;DHT22;1101;51.056;7.262;2022-11-15T00:57:47;8.90;99.90
2190;DHT22;1101;51.056;7.262;2022-11-15T01:00:15;8.90;99.90
2190;DHT22;1101;51.056;7.262;2022-11-15T01:02:43;9.00;99.90
2190;DHT22;1101;51.056;7.262;2022-11-15T01:05:11;9.00;99.90
2190;DHT22;1101;51.056;7.262;2022-11-15T01:07:39;9.00;99.90
2190;DHT22;1101;51.056;7.262;2022-11-15T01:10:08;9.00;99.90
2190;DHT22;1101;51.056;7.262;2022-11-15T01:12:36;9.00;99.90
2190;DHT22;1101;51.056;7.262;2022-11-15T01:15:05;9.00;99.90
2190;DHT22;1101;51.056;7.262;2022-11-15T01:17:33;9.10;99.90
2190;DHT22;1101;51.056;7.262;2022-11-15T01:20:01;9.10;99.90
2190;DHT22;1101;51.056;7.262;2022-11-15T01:22:28;9.10;99.90
2190;DHT22;1101;51.056;7.262;2022-11-15T01:24:56;9.10;99.90
2190;DHT22;1101;51.056;7.262;2022-11-15T01:27:26;9.10;99.90
2190;DHT22;1101;51.056;7.262;2022-11-15T01:29:53;9.10;99.90
2190;DHT22;1101;51.056;7.262;2022-11-15T01:32:21;9.10;99.90
2190;DHT22;1101;51.056;7.262;2022-11-15T01:34:49;9.20;99.90
2190;DHT22;1101;51.056;7.262;2022-11-15T01:37:17;9.20;99.90
2190;DHT22;1101;51.056;7.262;2022-11-15T01:39:44;9.20;99.90
2190;DHT22;1101;51.056;7.262;2022-11-15T01:42:12;9.20;99.90
2190;DHT22;1101;51.056;7.262;2022-11-15T01:44:44;9.20;99.90
2190;DHT22;1101;51.056;7.262;2022-11-15T01:47:15;9.30;99.90
2190;DHT22;1101;51.056;7.262;2022-11-15T01:49:50;9.30;99.90
2190;DHT22;1101;51.056;7.262;2022-11-15T01:52:21;9.30;99.90
2190;DHT22;1101;51.056;7.262;2022-11-15T01:54:56;9.30;99.90
2190;DHT22;1101;51.056;7.262;2022-11-15T01:57:26;9.30;99.90
2190;DHT22;1101;51.056;7.262;2022-11-15T01:59:57;9.40;99.90
2190;DHT22;1101;51.056;7.262;2022-11-15T02:02:25;9.40;99.90
2190;DHT22;1101;51.056;7.262;2022-11-15T02:04:53;9.40;99.90
2190;DHT22;1101;51.056;7.262;2022-11-15T02:07:22;9.40;99.90
2190;DHT22;1101;51.056;7.262;2022-11-15T02:09:50;9.40;99.90
2190;DHT22;1101;51.056;7.262;2022-11-15T02:12:19;9.40;99.90
2190;DHT22;1101;51.056;7.262;2022-11-15T02:14:50;9.50;99.90
2190;DHT22;1101;51.056;7.262;2022-11-15T02:17:34;9.50;99.90
2190;DHT22;1101;51.056;7.262;2022-11-15T02:20:21;9.50;99.90
2190;DHT22;1101;51.056;7.262;2022-11-15T02:23:14;9.50;99.90
2190;DHT22;1101;51.056;7.262;2022-11-15T02:25:57;9.50;99.90
2190;DHT22;1101;51.056;7.262;2022-11-15T02:28:44;9.50;99.90
2190;DHT22;1101;51.056;7.262;2022-11-15T02:31:26;9.50;99.90
2190;DHT22;1101;51.056;7.262;2022-11-15T02:34:02;9.50;99.90
2190;DHT22;1101;51.056;7.262;2022-11-15T02:36:39;9.50;99.90
2190;DHT22;1101;51.056;7.262;2022-11-15T02:39:13;9.60;99.90
2190;DHT22;1101;51.056;7.262;2022-11-15T02:41:47;9.60;99.90
2190;DHT22;1101;51.056;7.262;2022-11-15T02:44:21;9.60;99.90
2190;DHT22;1101;51.056;7.262;2022-11-15T02:46:53;9.60;99.90
2190;DHT22;1101;51.056;7.262;2022-11-15T02:49:41;9.60;99.90
2190;DHT22;1101;51.056;7.262;2022-11-15T02:52:14;9.70;99.90
2190;DHT22;1101;51.056;7.262;2022-11-15T02:54:43;9.70;99.90
2190;DHT22;1101;51.056;7.262;2022-11-15T02:57:14;9.70;99.90
2190;DHT22;1101;51.056;7.262;2022-11-15T03:00:05;9.70;99.90
2190;DHT22;1101;51.056;7.262;2022-11-15T03:03:03;9.70;99.90
2190;DHT22;1101;51.056;7.262;2022-11-15T03:05:36;9.80;99.90
2190;DHT22;1101;51.056;7.262;2022-11-15T03:08:09;9.80;99.90
2190;DHT22;1101;51.056;7.262;2022-11-15T03:10:46;9.80;99.90
2190;DHT22;1101;51.056;7.262;2022-11-15T03:13:23;9.90;99.90
2190;DHT22;1101;51.056;7.262;2022-11-15T03:15:57;9.90;99.90
2190;DHT22;1101;51.056;7.262;2022-11-15T03:18:34;9.90;99.90
2190;DHT22;1101;51.056;7.262;2022-11-15T03:21:05;9.90;99.90
2190;DHT22;1101;51.056;7.262;2022-11-15T03:23:37;9.90;99.90
2190;DHT22;1101;51.056;7.262;2022-11-15T03:26:08;9.90;99.90
2190;DHT22;1101;51.056;7.262;2022-11-15T03:28:40;10.00;99.90
2190;DHT22;1101;51.056;7.262;2022-11-15T03:31:12;10.00;99.90
2190;DHT22;1101;51.056;7.262;2022-11-15T03:33:57;10.00;99.90
2190;DHT22;1101;51.056;7.262;2022-11-15T03:36:27;10.00;99.90
2190;DHT22;1101;51.056;7.262;2022-11-15T03:39:00;10.00;99.90
2190;DHT22;1101;51.056;7.262;2022-11-15T03:41:37;10.00;99.90
2190;DHT22;1101;51.056;7.262;2022-11-15T03:44:13;10.10;99.90
2190;DHT22;1101;51.056;7.262;2022-11-15T03:46:47;10.10;99.90
2190;DHT22;1101;51.056;7.262;2022-11-15T03:49:21;10.10;99.90
2190;DHT22;1101;51.056;7.262;2022-11-15T03:51:51;10.10;99.90
2190;DHT22;1101;51.056;7.262;2022-11-15T03:54:18;10.10;99.90
2190;DHT22;1101;51.056;7.262;2022-11-15T03:56:46;10.10;99.90
2190;DHT22;1101;51.056;7.262;2022-11-15T03:59:14;10.20;99.90
2190;DHT22;1101;51.056;7.262;2022-11-15T04:01:42;10.20;99.90
2190;DHT22;1101;51.056;7.262;2022-11-15T04:04:10;10.20;99.90
2190;DHT22;1101;51.056;7.262;2022-11-15T04:06:39;10.20;99.90
2190;DHT22;1101;51.056;7.262;2022-11-15T04:09:07;10.20;99.90
2190;DHT22;1101;51.056;7.262;2022-11-15T04:11:34;10.20;99.90
2190;DHT22;1101;51.056;7.262;2022-11-15T04:14:02;10.30;99.90
2190;DHT22;1101;51.056;7.262;2022-11-15T04:16:30;10.30;99.90
2190;DHT22;1101;51.056;7.262;2022-11-15T04:18:58;10.30;99.90
2190;DHT22;1101;51.056;7.262;2022-11-15T04:21:44;10.30;99.90
2190;DHT22;1101;51.056;7.262;2022-11-15T04:24:29;10.30;99.90
2190;DHT22;1101;51.056;7.262;2022-11-15T04:26:57;10.30;99.90
2190;DHT22;1101;51.056;7.262;2022-11-15T04:29:25;10.30;99.90
2190;DHT22;1101;51.056;7.262;2022-11-15T04:32:02;10.40;99.90
2190;DHT22;1101;51.056;7.262;2022-11-15T04:34:30;10.40;99.90
2190;DHT22;1101;51.056;7.262;2022-11-15T04:36:59;10.40;99.90
2190;DHT22;1101;51.056;7.262;2022-11-15T04:39:40;10.40;99.90
2190;DHT22;1101;51.056;7.262;2022-11-15T04:42:08;10.40;99.90
2190;DHT22;1101;51.056;7.262;2022-11-15T04:44:36;10.40;99.90
2190;DHT22;1101;51.056;7.262;2022-11-15T04:47:04;10.40;99.90
2190;DHT22;1101;51.056;7.262;2022-11-15T04:49:32;10.40;99.90
2190;DHT22;1101;51.056;7.262;2022-11-15T04:52:01;10.40;99.90
2190;DHT22;1101;51.056;7.262;2022-11-15T04:54:29;10.40;99.90
2190;DHT22;1101;51.056;7.262;2022-11-15T04:56:57;10.50;99.90
2190;DHT22;1101;51.056;7.262;2022-11-15T04:59:24;10.50;99.90
2190;DHT22;1101;51.056;7.262;2022-11-15T05:01:52;10.50;99.90
2190;DHT22;1101;51.056;7.262;2022-11-15T05:04:20;10.50;99.90
2190;DHT22;1101;51.056;7.262;2022-11-15T05:06:48;10.50;99.90
2190;DHT22;1101;51.056;7.262;2022-11-15T05:09:18;10.50;99.90
2190;DHT22;1101;51.056;7.262;2022-11-15T05:11:46;10.50;99.90
2190;DHT22;1101;51.056;7.262;2022-11-15T05:14:14;10.50;99.90
2190;DHT22;1101;51.056;7.262;2022-11-15T05:16:42;10.50;99.90
2190;DHT22;1101;51.056;7.262;2022-11-15T05:19:10;10.50;99.90
2190;DHT22;1101;51.056;7.262;2022-11-15T05:21:38;10.50;99.90
2190;DHT22;1101;51.056;7.262;2022-11-15T05:24:06;10.50;99.90
2190;DHT22;1101;51.056;7.262;2022-11-15T05:26:37;10.50;99.90
2190;DHT22;1101;51.056;7.262;2022-11-15T05:29:04;10.50;99.90
2190;DHT22;1101;51.056;7.262;2022-11-15T05:31:32;10.50;99.90
2190;DHT22;1101;51.056;7.262;2022-11-15T05:34:00;10.50;99.90
2190;DHT22;1101;51.056;7.262;2022-11-15T05:36:33;10.50;99.90
2190;DHT22;1101;51.056;7.262;2022-11-15T05:39:03;10.50;99.90
2190;DHT22;1101;51.056;7.262;2022-11-15T05:41:37;10.50;99.90
2190;DHT22;1101;51.056;7.262;2022-11-15T05:44:09;10.50;99.90
2190;DHT22;1101;51.056;7.262;2022-11-15T05:46:39;10.50;99.90
2190;DHT22;1101;51.056;7.262;2022-11-15T05:49:10;10.50;99.90
2190;DHT22;1101;51.056;7.262;2022-11-15T05:51:39;10.50;99.90
2190;DHT22;1101;51.056;7.262;2022-11-15T05:54:08;10.50;99.90
2190;DHT22;1101;51.056;7.262;2022-11-15T05:56:37;10.50;99.90
2190;DHT22;1101;51.056;7.262;2022-11-15T05:59:06;10.50;99.90
2190;DHT22;1101;51.056;7.262;2022-11-15T06:01:34;10.50;99.90
2190;DHT22;1101;51.056;7.262;2022-11-15T06:04:02;10.50;99.90
2190;DHT22;1101;51.056;7.262;2022-11-15T06:06:30;10.50;99.90
2190;DHT22;1101;51.056;7.262;2022-11-15T06:08:58;10.50;99.90
2190;DHT22;1101;51.056;7.262;2022-11-15T06:11:26;10.50;99.90
2190;DHT22;1101;51.056;7.262;2022-11-15T06:13:56;10.50;99.90
2190;DHT22;1101;51.056;7.262;2022-11-15T06:16:24;10.50;99.90
2190;DHT22;1101;51.056;7.262;2022-11-15T06:18:52;10.50;99.90
2190;DHT22;1101;51.056;7.262;2022-11-15T06:21:20;10.50;99.90
2190;DHT22;1101;51.056;7.262;2022-11-15T06:23:48;10.40;99.90
2190;DHT22;1101;51.056;7.262;2022-11-15T06:26:16;10.40;99.90
2190;DHT22;1101;51.056;7.262;2022-11-15T06:28:43;10.40;99.90
2190;DHT22;1101;51.056;7.262;2022-11-15T06:31:12;10.30;99.90
2190;DHT22;1101;51.056;7.262;2022-11-15T06:33:40;10.30;99.90
2190;DHT22;1101;51.056;7.262;2022-11-15T06:36:10;10.30;99.90
2190;DHT22;1101;51.056;7.262;2022-11-15T06:38:44;10.30;99.90
2190;DHT22;1101;51.056;7.262;2022-11-15T06:41:13;10.20;99.90
2190;DHT22;1101;51.056;7.262;2022-11-15T06:43:41;10.20;99.90
2190;DHT22;1101;51.056;7.262;2022-11-15T06:46:10;10.20;99.90
2190;DHT22;1101;51.056;7.262;2022-11-15T06:48:39;10.20;99.90
2190;DHT22;1101;51.056;7.262;2022-11-15T06:51:06;10.20;99.90
2190;DHT22;1101;51.056;7.262;2022-11-15T06:53:35;10.20;99.90
2190;DHT22;1101;51.056;7.262;2022-11-15T06:56:04;10.10;99.90
2190;DHT22;1101;51.056;7.262;2022-11-15T06:58:33;10.10;99.90
2190;DHT22;1101;51.056;7.262;2022-11-15T07:01:04;10.10;99.90
2190;DHT22;1101;51.056;7.262;2022-11-15T07:03:34;10.10;99.90
2190;DHT22;1101;51.056;7.262;2022-11-15T07:06:04;10.10;99.90
2190;DHT22;1101;51.056;7.262;2022-11-15T07:08:33;10.10;99.90
2190;DHT22;1101;51.056;7.262;2022-11-15T07:11:03;10.10;99.90
2190;DHT22;1101;51.056;7.262;2022-11-15T07:13:32;10.10;99.90
2190;DHT22;1101;51.056;7.262;2022-11-15T07:16:02;10.00;99.90
2190;DHT22;1101;51.056;7.262;2022-11-15T07:18:30;10.00;99.90
2190;DHT22;1101;51.056;7.262;2022-11-15T07:21:02;10.00;99.90
2190;DHT22;1101;51.056;7.262;2022-11-15T07:23:30;10.00;99.90
2190;DHT22;1101;51.056;7.262;2022-11-15T07:25:59;10.00;99.90
2190;DHT22;1101;51.056;7.262;2022-11-15T07:28:28;10.00;99.90
2190;DHT22;1101;51.056;7.262;2022-11-15T07:30:56;9.90;99.90
2190;DHT22;1101;51.056;7.262;2022-11-15T07:33:24;9.90;99.90
2190;DHT22;1101;51.056;7.262;2022-11-15T07:35:51;9.90;99.90
2190;DHT22;1101;51.056;7.262;2022-11-15T07:38:20;9.90;99.90
2190;DHT22;1101;51.056;7.262;2022-11-15T07:40:56;9.90;99.90
2190;DHT22;1101;51.056;7.262;2022-11-15T07:43:24;9.90;99.90
2190;DHT22;1101;51.056;7.262;2022-11-15T07:45:54;9.90;99.90
2190;DHT22;1101;51.056;7.262;2022-11-15T07:48:25;9.90;99.90
2190;DHT22;1101;51.056;7.262;2022-11-15T07:51:11;9.90;99.90
2190;DHT22;1101;51.056;7.262;2022-11-15T07:53:41;9.90;99.90
2190;DHT22;1101;51.056;7.262;2022-11-15T07:56:10;9.90;99.90
2190;DHT22;1101;51.056;7.262;2022-11-15T07:58:38;9.90;99.90
2190;DHT22;1101;51.056;7.262;2022-11-15T08:01:06;9.90;99.90
2190;DHT22;1101;51.056;7.262;2022-11-15T08:03:35;10.00;99.90
2190;DHT22;1101;51.056;7.262;2022-11-15T08:06:04;10.00;99.90
2190;DHT22;1101;51.056;7.262;2022-11-15T08:08:32;10.00;99.90
2190;DHT22;1101;51.056;7.262;2022-11-15T08:11:01;10.10;99.90
2190;DHT22;1101;51.056;7.262;2022-11-15T08:13:29;10.20;99.90
2190;DHT22;1101;51.056;7.262;2022-11-15T08:15:58;10.30;99.90
2190;DHT22;1101;51.056;7.262;2022-11-15T08:18:26;10.30;99.90
2190;DHT22;1101;51.056;7.262;2022-11-15T08:20:58;10.30;99.90
2190;DHT22;1101;51.056;7.262;2022-11-15T08:23:26;10.30;99.90
2190;DHT22;1101;51.056;7.262;2022-11-15T08:26:01;10.30;99.90
2190;DHT22;1101;51.056;7.262;2022-11-15T08:28:30;10.30;99.90
2190;DHT22;1101;51.056;7.262;2022-11-15T08:30:58;10.30;99.90
2190;DHT22;1101;51.056;7.262;2022-11-15T08:33:26;10.30;99.90
2190;DHT22;1101;51.056;7.262;2022-11-15T08:35:56;10.30;99.90
2190;DHT22;1101;51.056;7.262;2022-11-15T08:38:24;10.30;99.90
2190;DHT22;1101;51.056;7.262;2022-11-15T08:40:53;10.30;99.90
2190;DHT22;1101;51.056;7.262;2022-11-15T08:43:27;10.30;99.90
2190;DHT22;1101;51.056;7.262;2022-11-15T08:45:56;10.40;99.90
2190;DHT22;1101;51.056;7.262;2022-11-15T08:48:24;10.40;99.90
2190;DHT22;1101;51.056;7.262;2022-11-15T08:50:53;10.40;99.90
2190;DHT22;1101;51.056;7.262;2022-11-15T08:53:21;10.40;99.90
2190;DHT22;1101;51.056;7.262;2022-11-15T08:55:50;10.40;99.90
2190;DHT22;1101;51.056;7.262;2022-11-15T08:58:18;10.40;99.90
2190;DHT22;1101;51.056;7.262;2022-11-15T09:00:47;10.40;99.90
2190;DHT22;1101;51.056;7.262;2022-11-15T09:03:15;10.50;99.90
2190;DHT22;1101;51.056;7.262;2022-11-15T09:05:42;10.50;99.90
2190;DHT22;1101;51.056;7.262;2022-11-15T09:08:10;10.50;99.90
2190;DHT22;1101;51.056;7.262;2022-11-15T09:11:02;10.50;99.90
2190;DHT22;1101;51.056;7.262;2022-11-15T09:13:31;10.60;99.90
2190;DHT22;1101;51.056;7.262;2022-11-15T09:16:00;10.60;99.90
2190;DHT22;1101;51.056;7.262;2022-11-15T09:18:29;10.70;99.90
2190;DHT22;1101;51.056;7.262;2022-11-15T09:20:58;10.70;99.90
2190;DHT22;1101;51.056;7.262;2022-11-15T09:23:27;10.70;99.90
2190;DHT22;1101;51.056;7.262;2022-11-15T09:25:59;10.80;99.90
2190;DHT22;1101;51.056;7.262;2022-11-15T09:28:27;10.80;99.90
2190;DHT22;1101;51.056;7.262;2022-11-15T09:30:57;10.90;99.90
2190;DHT22;1101;51.056;7.262;2022-11-15T09:33:27;10.90;99.90
2190;DHT22;1101;51.056;7.262;2022-11-15T09:36:00;10.90;99.90
2190;DHT22;1101;51.056;7.262;2022-11-15T09:38:28;11.00;99.90
2190;DHT22;1101;51.056;7.262;2022-11-15T09:41:13;11.00;99.90
2190;DHT22;1101;51.056;7.262;2022-11-15T09:43:50;11.00;99.90
2190;DHT22;1101;51.056;7.262;2022-11-15T09:46:26;11.00;99.90
2190;DHT22;1101;51.056;7.262;2022-11-15T09:48:58;11.10;99.90
2190;DHT22;1101;51.056;7.262;2022-11-15T09:51:30;11.20;99.90
2190;DHT22;1101;51.056;7.262;2022-11-15T09:54:05;11.20;99.90
2190;DHT22;1101;51.056;7.262;2022-11-15T09:57:04;11.30;99.90
2190;DHT22;1101;51.056;7.262;2022-11-15T09:59:50;11.30;99.90
2190;DHT22;1101;51.056;7.262;2022-11-15T10:02:37;11.40;99.90
2190;DHT22;1101;51.056;7.262;2022-11-15T10:05:13;11.40;99.90
2190;DHT22;1101;51.056;7.262;2022-11-15T10:07:48;11.50;99.90
2190;DHT22;1101;51.056;7.262;2022-11-15T10:10:25;11.50;99.90
2190;DHT22;1101;51.056;7.262;2022-11-15T10:12:55;11.60;99.90
2190;DHT22;1101;51.056;7.262;2022-11-15T10:15:23;11.60;99.90
2190;DHT22;1101;51.056;7.262;2022-11-15T10:18:04;11.70;99.90
2190;DHT22;1101;51.056;7.262;2022-11-15T10:20:42;11.70;99.90
2190;DHT22;1101;51.056;7.262;2022-11-15T10:23:14;11.70;99.90
2190;DHT22;1101;51.056;7.262;2022-11-15T10:25:43;11.70;99.90
2190;DHT22;1101;51.056;7.262;2022-11-15T10:28:15;11.70;99.90
2190;DHT22;1101;51.056;7.262;2022-11-15T10:30:45;11.80;99.90
2190;DHT22;1101;51.056;7.262;2022-11-15T10:33:26;11.80;99.90
2190;DHT22;1101;51.056;7.262;2022-11-15T10:36:18;11.80;99.90
2190;DHT22;1101;51.056;7.262;2022-11-15T10:38:55;11.80;99.90
2190;DHT22;1101;51.056;7.262;2022-11-15T10:41:31;11.80;99.90
2190;DHT22;1101;51.056;7.262;2022-11-15T10:44:09;11.80;99.90
2190;DHT22;1101;51.056;7.262;2022-11-15T10:46:39;11.90;99.90
2190;DHT22;1101;51.056;7.262;2022-11-15T10:49:15;11.90;99.90
2190;DHT22;1101;51.056;7.262;2022-11-15T10:51:47;11.90;99.90
2190;DHT22;1101;51.056;7.262;2022-11-15T10:54:21;11.90;99.90
2190;DHT22;1101;51.056;7.262;2022-11-15T10:56:51;12.00;99.90
2190;DHT22;1101;51.056;7.262;2022-11-15T10:59:24;12.00;99.90
2190;DHT22;1101;51.056;7.262;2022-11-15T11:01:54;12.10;99.90
2190;DHT22;1101;51.056;7.262;2022-11-15T11:04:22;12.10;99.90
2190;DHT22;1101;51.056;7.262;2022-11-15T11:06:53;12.10;99.90
2190;DHT22;1101;51.056;7.262;2022-11-15T11:09:30;12.10;99.90
2190;DHT22;1101;51.056;7.262;2022-11-15T11:11:59;12.10;99.90
2190;DHT22;1101;51.056;7.262;2022-11-15T11:14:29;12.10;99.90
2190;DHT22;1101;51.056;7.262;2022-11-15T11:17:03;12.10;99.90
2190;DHT22;1101;51.056;7.262;2022-11-15T11:19:49;12.10;99.90
2190;DHT22;1101;51.056;7.262;2022-11-15T11:22:26;12.10;99.90
2190;DHT22;1101;51.056;7.262;2022-11-15T11:25:04;12.20;99.90
2190;DHT22;1101;51.056;7.262;2022-11-15T11:27:43;12.20;99.90
2190;DHT22;1101;51.056;7.262;2022-11-15T11:30:17;12.30;99.90
2190;DHT22;1101;51.056;7.262;2022-11-15T11:33:09;12.30;99.90
2190;DHT22;1101;51.056;7.262;2022-11-15T11:35:50;12.30;99.90
2190;DHT22;1101;51.056;7.262;2022-11-15T11:38:31;12.30;99.90
2190;DHT22;1101;51.056;7.262;2022-11-15T11:41:10;12.30;99.90
2190;DHT22;1101;51.056;7.262;2022-11-15T11:43:48;12.40;99.90
2190;DHT22;1101;51.056;7.262;2022-11-15T11:49:18;12.40;99.90
2190;DHT22;1101;51.056;7.262;2022-11-15T11:51:51;12.50;99.90
2190;DHT22;1101;51.056;7.262;2022-11-15T11:54:25;12.50;99.90
2190;DHT22;1101;51.056;7.262;2022-11-15T11:56:54;12.50;99.80
2190;DHT22;1101;51.056;7.262;2022-11-15T11:59:31;12.50;99.70
2190;DHT22;1101;51.056;7.262;2022-11-15T12:02:07;12.40;99.60
2190;DHT22;1101;51.056;7.262;2022-11-15T12:04:40;12.40;99.60
2190;DHT22;1101;51.056;7.262;2022-11-15T12:07:13;12.40;99.70
2190;DHT22;1101;51.056;7.262;2022-11-15T12:09:49;12.40;99.60
2190;DHT22;1101;51.056;7.262;2022-11-15T12:12:23;12.40;99.70
2190;DHT22;1101;51.056;7.262;2022-11-15T12:14:55;12.40;99.80
2190;DHT22;1101;51.056;7.262;2022-11-15T12:17:24;12.40;99.80
2190;DHT22;1101;51.056;7.262;2022-11-15T12:19:56;12.40;99.80
2190;DHT22;1101;51.056;7.262;2022-11-15T12:22:33;12.40;99.70
2190;DHT22;1101;51.056;7.262;2022-11-15T12:25:08;12.40;99.60
2190;DHT22;1101;51.056;7.262;2022-11-15T12:27:44;12.40;99.60
2190;DHT22;1101;51.056;7.262;2022-11-15T12:30:14;12.40;99.60
2190;DHT22;1101;51.056;7.262;2022-11-15T12:32:51;12.50;99.70
2190;DHT22;1101;51.056;7.262;2022-11-15T12:35:40;12.50;99.70
2190;DHT22;1101;51.056;7.262;2022-11-15T12:38:10;12.60;99.80
2190;DHT22;1101;51.056;7.262;2022-11-15T12:41:12;12.60;99.60
2190;DHT22;1101;51.056;7.262;2022-11-15T12:43:41;12.60;99.50
2190;DHT22;1101;51.056;7.262;2022-11-15T12:49:10;12.50;99.50
2190;DHT22;1101;51.056;7.262;2022-11-15T12:52:04;12.50;99.50
2190;DHT22;1101;51.056;7.262;2022-11-15T12:55:00;12.40;99.50
2190;DHT22;1101;51.056;7.262;2022-11-15T12:57:41;12.40;99.60
2190;DHT22;1101;51.056;7.262;2022-11-15T13:00:37;12.40;99.60
2190;DHT22;1101;51.056;7.262;2022-11-15T13:03:25;12.40;99.70
2190;DHT22;1101;51.056;7.262;2022-11-15T13:06:08;12.40;99.70
2190;DHT22;1101;51.056;7.262;2022-11-15T13:08:43;12.40;99.70
2190;DHT22;1101;51.056;7.262;2022-11-15T13:11:45;12.40;99.70
2190;DHT22;1101;51.056;7.262;2022-11-15T13:14:44;12.40;99.80
2190;DHT22;1101;51.056;7.262;2022-11-15T13:17:30;12.50;99.80
2190;DHT22;1101;51.056;7.262;2022-11-15T13:22:48;12.50;99.80
2190;DHT22;1101;51.056;7.262;2022-11-15T13:25:50;12.50;99.80
2190;DHT22;1101;51.056;7.262;2022-11-15T13:28:22;12.60;99.70
2190;DHT22;1101;51.056;7.262;2022-11-15T13:30:55;12.50;99.70
2190;DHT22;1101;51.056;7.262;2022-11-15T13:33:28;12.50;99.60
2190;DHT22;1101;51.056;7.262;2022-11-15T13:36:05;12.50;99.70
2190;DHT22;1101;51.056;7.262;2022-11-15T13:38:35;12.50;99.70
2190;DHT22;1101;51.056;7.262;2022-11-15T13:41:17;12.50;99.70
2190;DHT22;1101;51.056;7.262;2022-11-15T13:43:45;12.50;99.70
2190;DHT22;1101;51.056;7.262;2022-11-15T13:46:17;12.50;99.80
2190;DHT22;1101;51.056;7.262;2022-11-15T13:48:46;12.50;99.80
2190;DHT22;1101;51.056;7.262;2022-11-15T13:51:19;12.50;99.80
2190;DHT22;1101;51.056;7.262;2022-11-15T13:53:50;12.50;99.80
2190;DHT22;1101;51.056;7.262;2022-11-15T13:56:19;12.50;99.80
2190;DHT22;1101;51.056;7.262;2022-11-15T13:58:48;12.50;99.70
2190;DHT22;1101;51.056;7.262;2022-11-15T14:01:18;12.40;99.70
2190;DHT22;1101;51.056;7.262;2022-11-15T14:03:50;12.40;99.60
2190;DHT22;1101;51.056;7.262;2022-11-15T14:06:21;12.40;99.70
2190;DHT22;1101;51.056;7.262;2022-11-15T14:09:14;12.40;99.70
2190;DHT22;1101;51.056;7.262;2022-11-15T14:11:51;12.40;99.70
2190;DHT22;1101;51.056;7.262;2022-11-15T14:14:20;12.40;99.70
2190;DHT22;1101;51.056;7.262;2022-11-15T14:16:52;12.40;99.80
2190;DHT22;1101;51.056;7.262;2022-11-15T14:19:38;12.40;99.70
2190;DHT22;1101;51.056;7.262;2022-11-15T14:22:24;12.40;99.90
2190;DHT22;1101;51.056;7.262;2022-11-15T14:25:15;12.40;99.80
2190;DHT22;1101;51.056;7.262;2022-11-15T14:28:06;12.40;99.80
2190;DHT22;1101;51.056;7.262;2022-11-15T14:30:32;12.30;99.70
2190;DHT22;1101;51.056;7.262;2022-11-15T14:33:01;12.30;99.70
2190;DHT22;1101;51.056;7.262;2022-11-15T14:35:39;12.30;99.70
2190;DHT22;1101;51.056;7.262;2022-11-15T14:38:07;12.30;99.70
2190;DHT22;1101;51.056;7.262;2022-11-15T14:40:35;12.30;99.70
2190;DHT22;1101;51.056;7.262;2022-11-15T14:43:03;12.30;99.70
2190;DHT22;1101;51.056;7.262;2022-11-15T14:45:30;12.30;99.70
2190;DHT22;1101;51.056;7.262;2022-11-15T14:47:58;12.30;99.80
2190;DHT22;1101;51.056;7.262;2022-11-15T14:50:27;12.30;99.70
2190;DHT22;1101;51.056;7.262;2022-11-15T14:52:55;12.20;99.70
2190;DHT22;1101;51.056;7.262;2022-11-15T14:55:24;12.20;99.70
2190;DHT22;1101;51.056;7.262;2022-11-15T14:57:53;12.20;99.70
2190;DHT22;1101;51.056;7.262;2022-11-15T15:00:22;12.20;99.70
2190;DHT22;1101;51.056;7.262;2022-11-15T15:02:52;12.20;99.70
2190;DHT22;1101;51.056;7.262;2022-11-15T15:05:22;12.20;99.70
2190;DHT22;1101;51.056;7.262;2022-11-15T15:07:52;12.20;99.70
2190;DHT22;1101;51.056;7.262;2022-11-15T15:10:21;12.20;99.60
2190;DHT22;1101;51.056;7.262;2022-11-15T15:13:14;12.20;99.70
2190;DHT22;1101;51.056;7.262;2022-11-15T15:15:43;12.10;99.70
2190;DHT22;1101;51.056;7.262;2022-11-15T15:18:11;12.10;99.70
2190;DHT22;1101;51.056;7.262;2022-11-15T15:20:41;12.10;99.70
2190;DHT22;1101;51.056;7.262;2022-11-15T15:23:14;12.10;99.70
2190;DHT22;1101;51.056;7.262;2022-11-15T15:25:43;12.10;99.70
2190;DHT22;1101;51.056;7.262;2022-11-15T15:28:12;12.10;99.70
2190;DHT22;1101;51.056;7.262;2022-11-15T15:30:40;12.10;99.70
2190;DHT22;1101;51.056;7.262;2022-11-15T15:33:08;12.00;99.70
2190;DHT22;1101;51.056;7.262;2022-11-15T15:35:36;12.00;99.70
2190;DHT22;1101;51.056;7.262;2022-11-15T15:38:04;12.00;99.70
2190;DHT22;1101;51.056;7.262;2022-11-15T15:40:33;12.00;99.70
2190;DHT22;1101;51.056;7.262;2022-11-15T15:43:01;12.00;99.80
2190;DHT22;1101;51.056;7.262;2022-11-15T15:45:29;11.90;99.80
2190;DHT22;1101;51.056;7.262;2022-11-15T15:47:58;11.90;99.80
2190;DHT22;1101;51.056;7.262;2022-11-15T15:50:27;11.90;99.90
2190;DHT22;1101;51.056;7.262;2022-11-15T15:52:57;11.90;99.80
2190;DHT22;1101;51.056;7.262;2022-11-15T15:55:25;11.90;99.80
2190;DHT22;1101;51.056;7.262;2022-11-15T15:57:55;11.90;99.80
2190;DHT22;1101;51.056;7.262;2022-11-15T16:00:24;11.90;99.80
2190;DHT22;1101;51.056;7.262;2022-11-15T16:02:53;11.90;99.80
2190;DHT22;1101;51.056;7.262;2022-11-15T16:05:21;11.90;99.80
2190;DHT22;1101;51.056;7.262;2022-11-15T16:07:49;11.90;99.80
2190;DHT22;1101;51.056;7.262;2022-11-15T16:10:20;11.90;99.90
2190;DHT22;1101;51.056;7.262;2022-11-15T16:12:48;11.80;99.80
2190;DHT22;1101;51.056;7.262;2022-11-15T16:15:18;11.80;99.80
2190;DHT22;1101;51.056;7.262;2022-11-15T16:17:49;11.80;99.80
2190;DHT22;1101;51.056;7.262;2022-11-15T16:20:25;11.80;99.80
2190;DHT22;1101;51.056;7.262;2022-11-15T16:22:55;11.80;99.80
2190;DHT22;1101;51.056;7.262;2022-11-15T16:25:23;11.80;99.90
2190;DHT22;1101;51.056;7.262;2022-11-15T16:27:51;11.80;99.80
2190;DHT22;1101;51.056;7.262;2022-11-15T16:30:21;11.80;99.80
2190;DHT22;1101;51.056;7.262;2022-11-15T16:32:49;11.80;99.80
2190;DHT22;1101;51.056;7.262;2022-11-15T16:35:17;11.80;99.80
2190;DHT22;1101;51.056;7.262;2022-11-15T16:37:45;11.80;99.80
2190;DHT22;1101;51.056;7.262;2022-11-15T16:40:24;11.80;99.80
2190;DHT22;1101;51.056;7.262;2022-11-15T16:42:52;11.80;99.80
2190;DHT22;1101;51.056;7.262;2022-11-15T16:45:23;11.80;99.80